Time;durP1;ratioP1;P1;durP2;ratioP2;P2;SDS_P1;SDS_P2;PMS_P1;PMS_P2;Temp;Humidity;BMP_temperature;BMP_pressure;BME280_temperature;BME280_humidity;BME280_pressure;Samples;Min_cycle;Max_cycle;Signal;HPM_P1;HPM_P2
2022/08/01 00:00:10;;;;;;;14.18;8.10;;;17.80;99.90;;;;;;4981909;28;20453;-47
2022/08/01 00:02:40;;;;;;;13.63;7.57;;;17.80;99.90;;;;;;4981082;28;20463;-51
2022/08/01 00:05:07;;;;;;;12.30;7.13;;;17.70;99.90;;;;;;4982144;28;20046;-51
2022/08/01 00:07:34;;;;;;;13.38;7.75;;;17.80;99.90;;;;;;4992618;28;20073;-51
2022/08/01 00:10:01;;;;;;;13.98;6.65;;;17.70;99.90;;;;;;4980076;28;20088;-47
2022/08/01 00:12:27;;;;;;;11.88;6.90;;;17.80;99.90;;;;;;4980681;28;20057;-46
2022/08/01 00:14:52;;;;;;;10.98;7.10;;;17.70;99.90;;;;;;4996750;28;20042;-47
2022/08/01 00:17:18;;;;;;;12.10;6.70;;;17.70;99.90;;;;;;4996365;28;20043;-50
2022/08/01 00:19:43;;;;;;;12.48;6.80;;;17.80;99.90;;;;;;4982517;28;20038;-49
2022/08/01 00:22:09;;;;;;;11.18;6.22;;;17.70;99.90;;;;;;4981034;28;20083;-47
2022/08/01 00:24:35;;;;;;;11.65;6.55;;;17.70;99.90;;;;;;4980847;28;20155;-51
2022/08/01 00:27:00;;;;;;;11.45;7.72;;;17.70;99.90;;;;;;4981511;28;20054;-50
2022/08/01 00:29:26;;;;;;;11.45;7.35;;;17.70;99.90;;;;;;4981530;28;20077;-47
2022/08/01 00:31:52;;;;;;;12.57;7.57;;;17.70;99.90;;;;;;4980725;28;20469;-51
2022/08/01 00:34:17;;;;;;;13.73;7.78;;;17.70;99.90;;;;;;4980170;28;20049;-50
2022/08/01 00:36:43;;;;;;;14.60;8.10;;;17.70;99.90;;;;;;4981843;28;20336;-51
2022/08/01 00:39:09;;;;;;;14.60;7.90;;;17.70;99.90;;;;;;4981303;28;20043;-47
2022/08/01 00:41:34;;;;;;;15.48;8.43;;;17.80;99.90;;;;;;4979482;28;20084;-48
2022/08/01 00:44:09;;;;;;;16.45;8.40;;;17.80;99.90;;;;;;4980841;28;20074;-50
2022/08/01 00:46:35;;;;;;;13.60;7.38;;;17.80;99.90;;;;;;4980892;28;20049;-47
2022/08/01 00:49:01;;;;;;;13.55;7.15;;;17.70;99.90;;;;;;4980485;28;20050;-47
2022/08/01 00:51:27;;;;;;;8.90;5.45;;;17.70;99.90;;;;;;4980980;28;20781;-49
2022/08/01 00:53:53;;;;;;;9.45;4.55;;;17.70;99.90;;;;;;4980452;28;20055;-47
2022/08/01 00:56:21;;;;;;;7.75;3.90;;;17.70;99.90;;;;;;4978771;28;20057;-48
2022/08/01 00:58:47;;;;;;;7.43;4.13;;;17.60;99.90;;;;;;4980001;28;20472;-47
2022/08/01 01:01:13;;;;;;;5.65;3.80;;;17.60;99.90;;;;;;4981034;28;20073;-49
2022/08/01 01:03:39;;;;;;;5.57;3.55;;;17.60;99.90;;;;;;4980709;28;20043;-47
2022/08/01 01:06:19;;;;;;;7.18;4.20;;;17.60;99.90;;;;;;4995397;23;20140;-47
2022/08/01 01:09:03;;;;;;;6.97;3.63;;;17.60;99.90;;;;;;4981159;28;20046;-47
2022/08/01 01:11:38;;;;;;;9.73;4.07;;;17.60;99.90;;;;;;4980063;28;20408;-47
2022/08/01 01:14:09;;;;;;;7.10;4.50;;;17.60;99.90;;;;;;4979087;28;20503;-49
2022/08/01 01:16:39;;;;;;;10.68;4.32;;;17.50;99.90;;;;;;4980575;28;20417;-51
2022/08/01 01:19:10;;;;;;;8.55;4.38;;;17.50;99.90;;;;;;4980554;28;20053;-51
2022/08/01 01:22:17;;;;;;;10.30;4.30;;;17.50;99.90;;;;;;4962108;28;20057;-50
2022/08/01 01:25:09;;;;;;;10.10;4.53;;;17.60;99.90;;;;;;4979634;28;20038;-48
2022/08/01 01:27:47;;;;;;;8.75;4.05;;;17.50;99.90;;;;;;4980413;28;20050;-48
2022/08/01 01:30:13;;;;;;;9.60;4.15;;;17.50;99.90;;;;;;4980056;28;20042;-47
2022/08/01 01:32:43;;;;;;;6.15;3.60;;;17.60;99.90;;;;;;4978886;28;20042;-51
2022/08/01 01:35:20;;;;;;;5.35;3.50;;;17.60;99.90;;;;;;4980284;28;20053;-52
2022/08/01 01:37:49;;;;;;;6.05;3.97;;;17.60;99.90;;;;;;4979633;28;20056;-51
2022/08/01 01:40:17;;;;;;;10.43;3.92;;;17.60;99.90;;;;;;4979703;28;20050;-48
2022/08/01 01:42:43;;;;;;;8.95;4.03;;;17.60;99.90;;;;;;4980660;28;20050;-49
2022/08/01 01:45:10;;;;;;;4.72;3.65;;;17.60;99.90;;;;;;4980109;28;20051;-49
2022/08/01 01:47:37;;;;;;;8.85;4.00;;;17.60;99.90;;;;;;4979433;28;20043;-50
2022/08/01 01:50:04;;;;;;;6.22;3.80;;;17.50;99.90;;;;;;4980096;28;20121;-50
2022/08/01 01:52:31;;;;;;;7.28;3.38;;;17.60;99.90;;;;;;4979567;28;20046;-48
2022/08/01 01:54:59;;;;;;;7.25;3.50;;;17.50;99.90;;;;;;4977463;28;20571;-48
2022/08/01 01:57:27;;;;;;;7.05;3.35;;;17.60;99.90;;;;;;4979865;28;20058;-48
2022/08/01 01:59:54;;;;;;;6.28;3.42;;;17.50;99.90;;;;;;4980121;28;20557;-51
2022/08/01 02:02:22;;;;;;;9.98;3.72;;;17.50;99.90;;;;;;4979643;28;20065;-51
2022/08/01 02:04:48;;;;;;;4.70;3.47;;;17.50;99.90;;;;;;4979362;28;20058;-51
2022/08/01 02:07:23;;;;;;;7.18;3.40;;;17.60;99.90;;;;;;4988824;28;20064;-50
2022/08/01 02:09:51;;;;;;;5.05;3.10;;;17.50;99.90;;;;;;4980396;28;20408;-51
2022/08/01 02:12:18;;;;;;;5.65;3.17;;;17.50;99.90;;;;;;4978793;28;20054;-52
2022/08/01 02:14:46;;;;;;;6.50;3.22;;;17.30;99.90;;;;;;4980184;28;20499;-51
2022/08/01 02:17:16;;;;;;;5.90;3.20;;;17.50;99.90;;;;;;4996627;28;20103;-50
2022/08/01 02:19:42;;;;;;;6.45;2.92;;;17.50;99.90;;;;;;4998596;28;20093;-49
2022/08/01 02:22:13;;;;;;;8.00;3.25;;;17.50;99.90;;;;;;4998275;28;20077;-49
2022/08/01 02:24:49;;;;;;;6.15;3.33;;;17.50;99.90;;;;;;4998283;28;20045;-51
2022/08/01 02:27:24;;;;;;;12.30;3.15;;;17.50;99.90;;;;;;4999466;28;20042;-50
2022/08/01 02:30:04;;;;;;;7.60;2.78;;;17.40;99.90;;;;;;4997896;28;20050;-48
2022/08/01 02:32:44;;;;;;;7.95;3.20;;;17.40;99.90;;;;;;4997805;28;20107;-51
2022/08/01 02:35:13;;;;;;;8.75;3.40;;;17.40;99.90;;;;;;4998219;28;20046;-49
2022/08/01 02:37:42;;;;;;;8.75;3.50;;;17.30;99.90;;;;;;4998920;28;20133;-52
2022/08/01 02:40:10;;;;;;;8.88;3.60;;;17.40;99.90;;;;;;4998327;28;20045;-49
2022/08/01 02:42:38;;;;;;;8.30;3.67;;;17.40;99.90;;;;;;4997736;28;20108;-49
2022/08/01 02:45:08;;;;;;;8.45;3.15;;;17.40;99.90;;;;;;4998670;28;20070;-50
2022/08/01 02:47:37;;;;;;;9.32;3.00;;;17.30;99.90;;;;;;4997562;28;20592;-51
2022/08/01 02:50:04;;;;;;;12.35;3.40;;;17.30;99.90;;;;;;4998992;28;20523;-48
2022/08/01 02:52:31;;;;;;;6.53;2.92;;;17.30;99.90;;;;;;4998491;28;20066;-47
2022/08/01 02:54:58;;;;;;;7.47;2.67;;;17.20;99.90;;;;;;4998057;28;20042;-47
2022/08/01 02:57:26;;;;;;;7.13;2.72;;;17.20;99.90;;;;;;4998755;28;20485;-46
2022/08/01 02:59:53;;;;;;;7.57;2.53;;;17.20;99.90;;;;;;5002435;28;20042;-48
2022/08/01 03:02:21;;;;;;;7.32;3.13;;;17.30;99.90;;;;;;5002693;28;20414;-48
2022/08/01 03:04:48;;;;;;;9.25;2.65;;;17.30;99.90;;;;;;5002875;28;20049;-49
2022/08/01 03:07:15;;;;;;;8.68;2.65;;;17.20;99.90;;;;;;4996958;28;20069;-49
2022/08/01 03:09:44;;;;;;;5.20;2.50;;;17.30;99.90;;;;;;4982660;28;20050;-47
2022/08/01 03:12:14;;;;;;;6.93;2.47;;;17.30;99.90;;;;;;4983128;28;20050;-49
2022/08/01 03:14:42;;;;;;;9.10;2.63;;;17.30;99.90;;;;;;4983121;28;20042;-48
2022/08/01 03:17:09;;;;;;;8.88;2.33;;;17.20;99.90;;;;;;4982294;28;20046;-46
2022/08/01 03:19:37;;;;;;;10.25;2.88;;;17.10;99.90;;;;;;4982904;28;20046;-51
2022/08/01 03:22:07;;;;;;;4.90;2.50;;;17.20;99.90;;;;;;4982930;28;20093;-48
2022/08/01 03:24:34;;;;;;;9.40;3.00;;;17.20;99.90;;;;;;4981755;28;20077;-50
2022/08/01 03:27:01;;;;;;;9.77;2.72;;;17.20;99.90;;;;;;4982340;28;20048;-51
2022/08/01 03:29:29;;;;;;;8.85;2.55;;;17.20;99.90;;;;;;4982583;28;20054;-47
2022/08/01 03:31:57;;;;;;;11.43;2.85;;;17.20;99.90;;;;;;4982923;28;20049;-49
2022/08/01 03:34:23;;;;;;;9.05;2.72;;;17.20;99.90;;;;;;4982368;28;20054;-48
2022/08/01 03:37:14;;;;;;;7.35;2.95;;;17.20;99.90;;;;;;4982465;28;20053;-48
2022/08/01 03:39:46;;;;;;;8.77;3.15;;;17.20;99.90;;;;;;4980618;28;20057;-46
2022/08/01 03:42:17;;;;;;;10.00;3.35;;;17.20;99.90;;;;;;4982087;28;20042;-51
2022/08/01 03:44:58;;;;;;;14.05;3.92;;;17.20;99.90;;;;;;4981515;28;20042;-49
2022/08/01 03:47:30;;;;;;;12.05;3.50;;;17.20;99.90;;;;;;4981547;28;20085;-47
2022/08/01 03:49:57;;;;;;;13.32;3.85;;;17.10;99.90;;;;;;4982433;28;20173;-50
2022/08/01 03:52:27;;;;;;;10.75;3.63;;;17.10;99.90;;;;;;4981903;28;20050;-51
2022/08/01 03:54:54;;;;;;;12.10;4.28;;;17.20;99.90;;;;;;4981686;28;20069;-48
2022/08/01 03:57:21;;;;;;;15.23;4.20;;;17.10;99.90;;;;;;4980820;28;20489;-51
2022/08/01 03:59:47;;;;;;;13.57;4.40;;;17.10;99.90;;;;;;4981955;28;20050;-51
2022/08/01 04:02:14;;;;;;;11.80;4.18;;;17.00;99.90;;;;;;4982443;28;20050;-50
2022/08/01 04:04:41;;;;;;;13.10;4.68;;;17.00;99.90;;;;;;4981208;28;20085;-48
2022/08/01 04:07:24;;;;;;;10.98;4.53;;;17.00;99.90;;;;;;4989973;28;20137;-51
2022/08/01 04:09:51;;;;;;;11.55;4.63;;;17.10;99.90;;;;;;4981008;28;20038;-47
2022/08/01 04:12:17;;;;;;;10.65;4.00;;;17.00;99.90;;;;;;4980721;28;20052;-54
2022/08/01 04:14:43;;;;;;;10.63;4.43;;;17.00;99.90;;;;;;4982356;28;20382;-53
2022/08/01 04:17:08;;;;;;;9.18;4.05;;;17.10;99.90;;;;;;4982060;28;20046;-48
2022/08/01 04:19:34;;;;;;;8.52;3.28;;;17.10;99.90;;;;;;4981521;28;20049;-50
2022/08/01 04:22:02;;;;;;;12.20;3.58;;;17.00;99.90;;;;;;4981059;28;20089;-48
2022/08/01 04:24:29;;;;;;;9.00;3.50;;;17.00;99.90;;;;;;4980605;28;20117;-47
2022/08/01 04:26:58;;;;;;;9.25;2.90;;;16.90;99.90;;;;;;4981783;28;20081;-53
2022/08/01 04:29:25;;;;;;;9.27;3.17;;;16.90;99.90;;;;;;4981232;28;20034;-48
2022/08/01 04:31:54;;;;;;;9.80;3.08;;;16.90;99.90;;;;;;4981123;28;20043;-47
2022/08/01 04:34:24;;;;;;;14.98;3.28;;;16.90;99.90;;;;;;4981047;28;20042;-48
2022/08/01 04:36:52;;;;;;;13.15;3.35;;;16.90;99.90;;;;;;4981527;28;20050;-46
2022/08/01 04:39:19;;;;;;;15.52;3.90;;;16.80;99.90;;;;;;4979610;28;20061;-48
2022/08/01 04:41:47;;;;;;;15.48;3.72;;;16.80;99.90;;;;;;4981980;28;20052;-55
2022/08/01 04:44:13;;;;;;;13.70;3.70;;;16.90;99.90;;;;;;4996742;28;20077;-47
2022/08/01 04:46:40;;;;;;;10.73;3.25;;;16.80;99.90;;;;;;4981122;28;20049;-47
2022/08/01 04:49:11;;;;;;;14.02;3.20;;;16.80;99.90;;;;;;4995714;28;20669;-49
2022/08/01 04:51:48;;;;;;;12.75;3.47;;;16.90;99.90;;;;;;4981272;28;20547;-47
2022/08/01 04:54:14;;;;;;;13.63;3.63;;;17.00;99.90;;;;;;4980635;28;20042;-48
2022/08/01 04:56:41;;;;;;;14.57;3.28;;;17.10;99.90;;;;;;4980521;28;20792;-49
2022/08/01 05:01:51;;;;;;;15.63;3.13;;;17.50;99.90;;;;;;4981360;28;20479;-47
2022/08/01 05:04:17;;;;;;;17.60;3.40;;;17.60;99.90;;;;;;4979683;28;20062;-53
2022/08/01 05:06:42;;;;;;;11.35;3.13;;;18.00;99.90;;;;;;4985620;28;20050;-49
2022/08/01 05:09:08;;;;;;;15.45;3.88;;;18.20;99.90;;;;;;4986596;28;20128;-48
2022/08/01 05:11:33;;;;;;;16.13;3.40;;;18.60;99.90;;;;;;4979364;28;20049;-50
2022/08/01 05:14:00;;;;;;;16.50;3.25;;;18.80;99.90;;;;;;4980098;28;20045;-48
2022/08/01 05:16:26;;;;;;;13.70;3.78;;;19.10;99.90;;;;;;4980431;28;20065;-49
2022/08/01 05:18:52;;;;;;;12.48;2.97;;;19.50;99.90;;;;;;4980871;28;20057;-48
2022/08/01 05:21:17;;;;;;;19.20;3.55;;;19.60;99.90;;;;;;4979654;28;20481;-51
2022/08/01 05:23:43;;;;;;;19.92;3.38;;;19.70;99.90;;;;;;4979666;28;20175;-49
2022/08/01 05:26:11;;;;;;;16.55;3.97;;;19.40;99.90;;;;;;4980486;28;20046;-49
2022/08/01 05:28:36;;;;;;;15.20;3.58;;;19.20;99.90;;;;;;4980346;28;20112;-48
2022/08/01 05:31:03;;;;;;;12.90;3.22;;;18.80;99.90;;;;;;4979925;28;20564;-51
2022/08/01 05:33:28;;;;;;;14.85;3.33;;;18.70;99.90;;;;;;4980310;28;20089;-47
2022/08/01 05:35:54;;;;;;;15.75;3.35;;;18.50;99.90;;;;;;4980206;28;20057;-49
2022/08/01 05:38:20;;;;;;;14.90;3.65;;;18.50;99.90;;;;;;4979710;28;20481;-46
2022/08/01 05:40:45;;;;;;;17.70;3.65;;;18.50;99.90;;;;;;4978969;28;20045;-56
2022/08/01 05:43:11;;;;;;;14.50;3.20;;;18.50;99.90;;;;;;4979277;28;20777;-50
2022/08/01 05:45:37;;;;;;;15.60;3.70;;;18.50;99.90;;;;;;4980114;28;20134;-48
2022/08/01 05:48:02;;;;;;;15.52;3.35;;;18.40;99.90;;;;;;4979937;28;20117;-51
2022/08/01 05:50:28;;;;;;;14.70;3.35;;;18.30;99.90;;;;;;4978949;28;20058;-50
2022/08/01 05:52:54;;;;;;;16.70;3.45;;;18.10;99.90;;;;;;4980038;28;20026;-48
2022/08/01 05:55:19;;;;;;;15.45;3.05;;;18.00;99.90;;;;;;4978633;28;20101;-48
2022/08/01 05:57:45;;;;;;;21.80;3.80;;;17.90;99.90;;;;;;4980299;28;20045;-50
2022/08/01 06:00:12;;;;;;;15.52;3.92;;;17.90;99.90;;;;;;4979213;28;20042;-48
2022/08/01 06:02:44;;;;;;;19.13;4.35;;;17.90;99.90;;;;;;4979740;28;20527;-47
2022/08/01 06:05:10;;;;;;;17.15;3.97;;;17.90;99.90;;;;;;4979703;28;20112;-48
2022/08/01 06:07:36;;;;;;;18.05;3.50;;;17.70;99.90;;;;;;4990683;28;20224;-49
2022/08/01 06:10:02;;;;;;;15.23;3.63;;;17.70;99.90;;;;;;4978372;28;20129;-48
2022/08/01 06:12:28;;;;;;;15.23;3.72;;;17.80;99.90;;;;;;4979128;28;20121;-48
2022/08/01 06:14:54;;;;;;;15.60;3.42;;;17.70;99.90;;;;;;4978650;28;20117;-48
2022/08/01 06:17:19;;;;;;;15.35;3.75;;;17.70;99.90;;;;;;4979102;28;20065;-51
2022/08/01 06:19:45;;;;;;;14.88;3.63;;;17.70;99.90;;;;;;4979503;28;20042;-47
2022/08/01 06:22:10;;;;;;;13.85;4.07;;;17.60;99.90;;;;;;4995096;28;20046;-48
2022/08/01 06:24:36;;;;;;;20.05;3.72;;;17.70;99.90;;;;;;4978678;28;20551;-49
2022/08/01 06:27:02;;;;;;;14.10;3.60;;;17.70;99.90;;;;;;4979665;28;20448;-48
2022/08/01 06:29:31;;;;;;;18.15;3.70;;;17.70;99.90;;;;;;4978360;28;20128;-47
2022/08/01 06:31:56;;;;;;;17.65;3.50;;;17.70;99.90;;;;;;4978586;28;20670;-50
2022/08/01 06:34:22;;;;;;;18.02;3.55;;;17.70;99.90;;;;;;4978688;28;20065;-48
2022/08/01 06:36:48;;;;;;;21.10;4.70;;;17.60;99.90;;;;;;4979045;28;20054;-47
2022/08/01 06:39:13;;;;;;;15.52;3.45;;;17.70;99.90;;;;;;4978277;28;20391;-48
2022/08/01 06:41:41;;;;;;;12.32;3.40;;;17.70;99.90;;;;;;4979238;28;20081;-48
2022/08/01 06:44:07;;;;;;;15.27;4.20;;;17.70;99.90;;;;;;4978924;28;20049;-55
2022/08/01 06:46:34;;;;;;;14.52;3.65;;;17.70;99.90;;;;;;4993331;28;20043;-49
2022/08/01 06:48:59;;;;;;;15.48;3.60;;;17.70;99.90;;;;;;4994491;28;20050;-48
2022/08/01 06:51:25;;;;;;;19.88;4.20;;;17.70;99.90;;;;;;4977270;28;20046;-47
2022/08/01 06:53:51;;;;;;;14.73;3.38;;;17.70;99.90;;;;;;4978593;28;20584;-47
2022/08/01 06:56:17;;;;;;;17.15;3.65;;;17.70;99.90;;;;;;4977779;28;20046;-56
2022/08/01 06:58:42;;;;;;;13.45;3.03;;;17.70;99.90;;;;;;4979540;28;20170;-49
2022/08/01 07:01:08;;;;;;;17.35;3.83;;;17.70;99.90;;;;;;4979201;28;20075;-50
2022/08/01 07:03:34;;;;;;;12.35;3.30;;;17.70;99.90;;;;;;4979048;28;20047;-49
2022/08/01 07:06:00;;;;;;;17.15;3.88;;;17.70;99.90;;;;;;4980555;28;20050;-48
2022/08/01 07:08:26;;;;;;;12.68;3.60;;;17.80;99.90;;;;;;4984370;28;20474;-50
2022/08/01 07:10:52;;;;;;;14.40;3.70;;;17.70;99.90;;;;;;4979343;28;20057;-48
2022/08/01 07:13:21;;;;;;;18.48;3.78;;;17.80;99.90;;;;;;4978678;28;20038;-48
2022/08/01 07:15:47;;;;;;;16.58;3.20;;;17.80;99.90;;;;;;4977990;28;20093;-48
2022/08/01 07:18:13;;;;;;;17.25;3.33;;;17.80;99.90;;;;;;4979454;28;20047;-47
2022/08/01 07:20:38;;;;;;;20.67;3.75;;;17.80;99.90;;;;;;4978783;28;20046;-47
2022/08/01 07:23:04;;;;;;;16.02;3.42;;;17.80;99.90;;;;;;4979151;28;20042;-49
2022/08/01 07:25:30;;;;;;;13.77;3.35;;;17.90;99.90;;;;;;4977393;28;20046;-50
2022/08/01 07:27:55;;;;;;;16.55;3.60;;;17.60;99.90;;;;;;4994212;28;20046;-51
2022/08/01 07:30:21;;;;;;;15.27;2.80;;;17.70;99.90;;;;;;4978457;28;20501;-47
2022/08/01 07:32:47;;;;;;;11.93;2.80;;;17.70;99.90;;;;;;4978815;28;20528;-48
2022/08/01 07:35:12;;;;;;;16.70;3.33;;;17.60;99.90;;;;;;4978098;28;20533;-47
2022/08/01 07:37:38;;;;;;;13.23;2.70;;;17.60;99.90;;;;;;4978337;28;20085;-49
2022/08/01 07:40:05;;;;;;;11.98;2.97;;;17.70;99.90;;;;;;4978029;28;20116;-49
2022/08/01 07:42:31;;;;;;;17.23;3.03;;;17.70;99.90;;;;;;4978010;28;20053;-47
2022/08/01 07:44:57;;;;;;;13.18;3.40;;;17.70;99.90;;;;;;5007530;28;20037;-51
2022/08/01 07:47:26;;;;;;;12.40;3.17;;;17.70;99.90;;;;;;5021058;28;20091;-47
2022/08/01 07:49:58;;;;;;;12.50;2.60;;;17.80;99.90;;;;;;5021630;28;20037;-46
2022/08/01 07:52:24;;;;;;;11.43;3.20;;;17.90;99.90;;;;;;5020175;28;20574;-48
2022/08/01 07:54:49;;;;;;;9.70;2.20;;;17.90;99.90;;;;;;5020896;28;20037;-49
2022/08/01 07:57:15;;;;;;;11.60;2.95;;;17.90;99.90;;;;;;5021691;28;20563;-48
2022/08/01 07:59:40;;;;;;;12.95;3.00;;;18.00;99.90;;;;;;5021954;28;20132;-48
2022/08/01 08:02:06;;;;;;;9.00;2.80;;;18.20;99.90;;;;;;5021094;28;20059;-49
2022/08/01 08:04:32;;;;;;;14.68;2.78;;;18.20;99.90;;;;;;5020703;28;20080;-48
2022/08/01 08:06:58;;;;;;;12.85;3.13;;;18.30;99.90;;;;;;5002359;28;20125;-48
2022/08/01 08:09:23;;;;;;;11.68;2.55;;;18.40;99.90;;;;;;4985153;28;20274;-48
2022/08/01 08:11:49;;;;;;;14.00;2.78;;;18.50;99.90;;;;;;4981544;28;20476;-48
2022/08/01 08:14:15;;;;;;;7.25;2.22;;;18.60;99.90;;;;;;4981928;28;20046;-49
2022/08/01 08:16:42;;;;;;;12.27;2.47;;;18.50;99.90;;;;;;4981180;28;20046;-51
2022/08/01 08:19:07;;;;;;;10.25;2.13;;;18.70;99.90;;;;;;4980738;28;20557;-48
2022/08/01 08:21:34;;;;;;;12.00;2.67;;;18.90;99.90;;;;;;4981188;28;20050;-51
2022/08/01 08:26:43;;;;;;;10.20;2.47;;;19.20;99.90;;;;;;4982100;28;20042;-48
2022/08/01 08:29:09;;;;;;;13.13;2.17;;;19.20;99.90;;;;;;4980733;28;20555;-48
2022/08/01 08:31:35;;;;;;;17.15;3.28;;;19.20;99.90;;;;;;4981600;28;20093;-47
2022/08/01 08:34:01;;;;;;;15.60;3.33;;;19.40;99.90;;;;;;4981722;28;20058;-50
2022/08/01 08:36:27;;;;;;;10.15;2.28;;;19.70;99.90;;;;;;4981135;28;20725;-46
2022/08/01 08:38:52;;;;;;;12.05;2.25;;;19.70;99.90;;;;;;4980161;28;20042;-48
2022/08/01 08:41:18;;;;;;;12.25;2.33;;;19.60;99.90;;;;;;4980859;28;20549;-47
2022/08/01 08:43:44;;;;;;;10.82;1.98;;;19.90;99.90;;;;;;4981550;28;20046;-48
2022/08/01 08:46:12;;;;;;;9.35;2.20;;;20.30;99.90;;;;;;4981466;28;20048;-47
2022/08/01 08:48:39;;;;;;;6.80;1.65;;;20.60;99.90;;;;;;4995365;28;20046;-49
2022/08/01 08:51:08;;;;;;;11.18;2.40;;;20.80;99.90;;;;;;4981173;28;20057;-50
2022/08/01 08:53:35;;;;;;;8.77;1.92;;;21.10;99.90;;;;;;4980188;28;20050;-48
2022/08/01 08:56:02;;;;;;;10.32;1.98;;;21.00;99.90;;;;;;4980548;28;20088;-48
2022/08/01 08:58:29;;;;;;;9.70;1.95;;;21.30;99.90;;;;;;4994875;28;20043;-49
2022/08/01 09:00:55;;;;;;;7.68;1.67;;;21.20;99.90;;;;;;4981201;28;20046;-47
2022/08/01 09:03:21;;;;;;;9.98;2.53;;;21.40;99.90;;;;;;4980504;28;20053;-47
2022/08/01 09:05:46;;;;;;;11.13;1.90;;;21.20;99.90;;;;;;4981081;28;20061;-48
2022/08/01 09:08:12;;;;;;;9.55;1.98;;;21.10;99.90;;;;;;4989259;28;20077;-49
2022/08/01 09:10:38;;;;;;;11.57;1.90;;;21.10;99.90;;;;;;4980926;28;20073;-49
2022/08/01 09:13:14;;;;;;;11.25;1.90;;;21.30;99.90;;;;;;4980773;28;20129;-48
2022/08/01 09:15:53;;;;;;;11.38;2.33;;;21.50;99.90;;;;;;4979937;28;20054;-48
2022/08/01 09:18:45;;;;;;;9.60;1.88;;;21.40;99.90;;;;;;4980416;28;20390;-50
2022/08/01 09:21:22;;;;;;;10.13;1.80;;;21.70;99.90;;;;;;4976967;28;20105;-47
2022/08/01 09:23:53;;;;;;;10.88;1.80;;;21.70;99.90;;;;;;4980034;28;20046;-51
2022/08/01 09:26:29;;;;;;;10.57;2.33;;;21.90;99.90;;;;;;4980320;28;20046;-47
2022/08/01 09:28:55;;;;;;;17.90;1.98;;;21.70;99.90;;;;;;4980651;28;20092;-49
2022/08/01 09:31:21;;;;;;;10.07;2.17;;;21.90;99.90;;;;;;4980479;28;20050;-48
2022/08/01 09:33:56;;;;;;;9.23;1.70;;;21.80;99.90;;;;;;4979480;28;20575;-48
2022/08/01 09:36:40;;;;;;;8.10;1.70;;;22.20;99.90;;;;;;4979457;28;20039;-50
2022/08/01 09:39:12;;;;;;;9.88;2.10;;;22.40;99.90;;;;;;4979910;28;20344;-48
2022/08/01 09:41:38;;;;;;;6.63;1.40;;;22.80;99.90;;;;;;4979628;28;20481;-47
2022/08/01 09:44:04;;;;;;;10.93;2.08;;;22.50;99.90;;;;;;4979946;28;20044;-47
2022/08/01 09:46:30;;;;;;;9.15;1.90;;;22.40;99.90;;;;;;4995021;28;20040;-48
2022/08/01 09:49:04;;;;;;;9.88;1.70;;;22.70;99.90;;;;;;4979992;28;20038;-51
2022/08/01 09:51:35;;;;;;;7.20;1.67;;;22.30;99.90;;;;;;4977535;28;20082;-47
2022/08/01 09:54:06;;;;;;;12.90;2.67;;;22.60;99.90;;;;;;4978950;28;20486;-46
2022/08/01 09:56:42;;;;;;;7.03;1.70;;;22.10;99.90;;;;;;4979507;28;20046;-46
2022/08/01 09:59:09;;;;;;;6.18;1.23;;;22.60;99.90;;;;;;4979519;28;20820;-49
2022/08/01 10:01:50;;;;;;;8.82;1.77;;;22.30;99.90;;;;;;4979587;28;20042;-48
2022/08/01 10:04:19;;;;;;;9.07;2.10;;;22.30;99.90;;;;;;4978167;28;20046;-48
2022/08/01 10:06:58;;;;;;;9.50;1.83;;;22.40;99.90;;;;;;4984559;28;20058;-53
2022/08/01 10:09:29;;;;;;;8.40;1.73;;;22.80;99.90;;;;;;4982705;28;20406;-48
2022/08/01 10:11:56;;;;;;;9.13;1.80;;;22.90;99.90;;;;;;4995967;28;20045;-51
2022/08/01 10:14:24;;;;;;;5.72;1.63;;;23.20;99.90;;;;;;5007193;28;20516;-49
2022/08/01 10:16:53;;;;;;;8.68;1.75;;;23.40;99.90;;;;;;5007002;28;20120;-52
2022/08/01 10:19:22;;;;;;;7.30;1.77;;;23.60;99.90;;;;;;5007823;28;20434;-51
2022/08/01 10:21:51;;;;;;;8.57;1.80;;;23.70;99.90;;;;;;5009393;28;20503;-49
2022/08/01 10:24:19;;;;;;;8.45;1.83;;;23.60;99.90;;;;;;5006828;28;20046;-53
2022/08/01 10:26:48;;;;;;;6.97;1.40;;;23.80;99.90;;;;;;5007774;28;20041;-48
2022/08/01 10:29:18;;;;;;;9.65;2.92;;;23.90;99.90;;;;;;5004647;28;20622;-50
2022/08/01 10:31:45;;;;;;;9.18;3.58;;;23.90;99.90;;;;;;5000272;28;20052;-51
2022/08/01 10:34:15;;;;;;;6.90;1.70;;;23.60;99.90;;;;;;4998945;28;20512;-50
2022/08/01 10:36:42;;;;;;;7.68;1.75;;;23.50;99.90;;;;;;4998490;28;20046;-51
2022/08/01 10:39:11;;;;;;;8.88;1.77;;;23.60;99.90;;;;;;4997854;28;20048;-49
2022/08/01 10:41:39;;;;;;;8.32;2.10;;;23.60;99.90;;;;;;4998607;28;20803;-51
2022/08/01 10:44:07;;;;;;;11.15;1.85;;;23.20;99.90;;;;;;4998506;28;20046;-49
2022/08/01 10:46:36;;;;;;;10.60;2.05;;;23.30;99.90;;;;;;4996363;28;20046;-49
2022/08/01 10:49:16;;;;;;;10.43;2.20;;;23.20;99.90;;;;;;4998571;28;20046;-51
2022/08/01 10:51:43;;;;;;;9.10;2.15;;;23.40;99.90;;;;;;4998883;28;20110;-52
2022/08/01 10:54:10;;;;;;;8.07;2.38;;;23.60;99.90;;;;;;4997515;28;20042;-49
2022/08/01 10:56:47;;;;;;;6.50;1.70;;;23.50;99.90;;;;;;4998254;28;20046;-50
2022/08/01 10:59:27;;;;;;;7.30;1.80;;;23.30;99.90;;;;;;4998866;28;20543;-53
2022/08/01 11:02:01;;;;;;;9.07;2.20;;;23.40;99.90;;;;;;4998629;28;20049;-49
2022/08/01 11:05:04;;;;;;;7.60;2.00;;;23.20;99.90;;;;;;4997808;28;20099;-52
2022/08/01 11:07:45;;;;;;;7.13;1.52;;;23.00;99.90;;;;;;4991832;28;20297;-51
2022/08/01 11:10:30;;;;;;;6.72;1.48;;;22.80;99.90;;;;;;4978284;28;20045;-51
2022/08/01 11:12:55;;;;;;;9.82;2.60;;;22.80;99.90;;;;;;4978864;28;20035;-55
2022/08/01 11:15:25;;;;;;;6.15;2.50;;;22.80;99.90;;;;;;4976846;28;20379;-48
2022/08/01 11:17:52;;;;;;;7.25;2.15;;;22.50;99.90;;;;;;4977966;28;20092;-50
2022/08/01 11:20:29;;;;;;;12.88;2.10;;;22.50;99.90;;;;;;4980378;28;20046;-51
2022/08/01 11:23:01;;;;;;;9.43;1.70;;;22.40;99.90;;;;;;4982121;28;20084;-52
2022/08/01 11:25:48;;;;;;;4.57;1.40;;;22.20;99.90;;;;;;4979159;28;20060;-51
2022/08/01 11:28:14;;;;;;;7.63;1.67;;;22.10;99.90;;;;;;5001047;28;20042;-49
2022/08/01 11:30:43;;;;;;;10.95;1.80;;;22.30;99.90;;;;;;5000133;28;20096;-49
2022/08/01 11:33:09;;;;;;;6.50;1.45;;;22.30;99.90;;;;;;5000756;28;20038;-48
2022/08/01 11:35:36;;;;;;;9.38;1.80;;;22.10;99.90;;;;;;5001558;28;20044;-52
2022/08/01 11:38:27;;;;;;;8.77;1.73;;;22.30;99.90;;;;;;5000219;28;20104;-50
2022/08/01 11:41:26;;;;;;;7.05;1.33;;;22.00;99.90;;;;;;5001352;28;20057;-50
2022/08/01 11:44:03;;;;;;;12.70;1.75;;;22.40;99.90;;;;;;4988661;28;20057;-52
2022/08/01 11:47:01;;;;;;;6.82;1.50;;;22.60;99.90;;;;;;5001217;28;20074;-51
2022/08/01 11:49:34;;;;;;;10.75;1.73;;;22.80;99.90;;;;;;5001125;28;20050;-48
2022/08/01 11:52:17;;;;;;;6.45;1.50;;;22.60;99.90;;;;;;5001160;28;20061;-49
2022/08/01 11:55:07;;;;;;;6.97;1.50;;;23.00;99.90;;;;;;4999453;28;20041;-51
2022/08/01 11:57:34;;;;;;;6.82;1.20;;;22.80;99.90;;;;;;5000539;28;20308;-52
2022/08/01 12:00:12;;;;;;;10.32;2.28;;;22.70;99.90;;;;;;5000545;28;20053;-50
2022/08/01 12:02:38;;;;;;;4.80;1.30;;;22.80;99.90;;;;;;5000734;28;20488;-49
2022/08/01 12:05:08;;;;;;;6.88;1.60;;;23.10;99.90;;;;;;5001242;28;20116;-50
2022/08/01 12:07:35;;;;;;;6.82;1.80;;;23.10;99.90;;;;;;4992758;28;20104;-50
2022/08/01 12:10:05;;;;;;;7.25;1.70;;;23.40;99.90;;;;;;4982068;28;20240;-48
2022/08/01 12:12:33;;;;;;;7.78;1.48;;;23.50;99.90;;;;;;4981522;28;20639;-51
2022/08/01 12:15:02;;;;;;;5.82;1.35;;;23.60;99.90;;;;;;4981167;28;20050;-51
2022/08/01 12:17:49;;;;;;;7.22;1.70;;;23.10;99.90;;;;;;4981232;28;20096;-51
2022/08/01 12:20:20;;;;;;;8.02;1.60;;;23.00;99.90;;;;;;4981925;28;20089;-51
2022/08/01 12:22:46;;;;;;;7.28;2.33;;;23.30;99.90;;;;;;4980254;28;20085;-57
2022/08/01 12:25:14;;;;;;;5.70;2.25;;;23.20;99.90;;;;;;4981566;28;20045;-48
2022/08/01 12:27:43;;;;;;;5.60;1.65;;;23.40;99.90;;;;;;4981702;28;20053;-52
2022/08/01 12:30:12;;;;;;;4.45;1.70;;;23.30;99.90;;;;;;4979226;28;20050;-48
2022/08/01 12:32:40;;;;;;;6.93;1.65;;;23.30;99.90;;;;;;4981220;28;20038;-49
2022/08/01 12:35:07;;;;;;;7.38;1.70;;;23.20;99.90;;;;;;4981679;28;20065;-48
2022/08/01 12:37:37;;;;;;;12.10;2.22;;;23.20;99.90;;;;;;4979986;28;20047;-52
2022/08/01 12:40:14;;;;;;;10.85;1.85;;;23.20;99.90;;;;;;4980444;28;20066;-49
2022/08/01 12:42:41;;;;;;;6.68;1.70;;;23.40;99.90;;;;;;4980386;28;20137;-48
2022/08/01 12:45:09;;;;;;;6.82;1.30;;;23.40;99.90;;;;;;4996527;28;20104;-52
2022/08/01 12:47:38;;;;;;;9.25;1.73;;;23.30;99.90;;;;;;4980072;28;20042;-49
2022/08/01 12:50:07;;;;;;;7.93;1.50;;;23.30;99.90;;;;;;4980861;28;20767;-49
2022/08/01 12:52:33;;;;;;;7.75;1.63;;;23.20;99.90;;;;;;4980263;28;20068;-47
2022/08/01 12:55:06;;;;;;;6.28;1.40;;;23.50;99.90;;;;;;4980246;28;20042;-57